sensor_id;sensor_type;location;lat;lon;timestamp;P1;durP1;ratioP1;P2;durP2;ratioP2
32788;SDS011;19141;48.980;8.410;2022-08-11T04:22:48;4.55;;;2.42;;
32788;SDS011;19141;48.980;8.410;2022-08-11T04:57:02;2.42;;;2.03;;
32788;SDS011;19141;48.980;8.410;2022-08-11T05:03:00;5.80;;;2.35;;
32788;SDS011;19141;48.980;8.410;2022-08-11T05:13:47;3.60;;;2.38;;
32788;SDS011;19141;48.980;8.410;2022-08-11T05:16:43;2.85;;;2.50;;
32788;SDS011;19141;48.980;8.410;2022-08-11T05:19:37;3.33;;;2.35;;
32788;SDS011;19141;48.980;8.410;2022-08-11T05:22:24;4.88;;;1.90;;
32788;SDS011;19141;48.980;8.410;2022-08-11T05:25:14;4.60;;;2.30;;
32788;SDS011;19141;48.980;8.410;2022-08-11T05:28:09;3.42;;;2.13;;
32788;SDS011;19141;48.980;8.410;2022-08-11T05:31:12;3.97;;;2.38;;
32788;SDS011;19141;48.980;8.410;2022-08-11T05:34:06;3.83;;;2.13;;
32788;SDS011;19141;48.980;8.410;2022-08-11T05:37:07;3.38;;;2.40;;
32788;SDS011;19141;48.980;8.410;2022-08-11T05:39:44;5.47;;;2.67;;
32788;SDS011;19141;48.980;8.410;2022-08-11T05:42:31;4.13;;;2.25;;
32788;SDS011;19141;48.980;8.410;2022-08-11T05:45:16;3.67;;;2.30;;
32788;SDS011;19141;48.980;8.410;2022-08-11T05:48:02;3.80;;;2.30;;
32788;SDS011;19141;48.980;8.410;2022-08-11T05:50:54;6.30;;;2.40;;
32788;SDS011;19141;48.980;8.410;2022-08-11T05:53:58;3.03;;;2.30;;
32788;SDS011;19141;48.980;8.410;2022-08-11T05:56:48;3.03;;;2.13;;
32788;SDS011;19141;48.980;8.410;2022-08-11T05:59:18;3.25;;;2.15;;
32788;SDS011;19141;48.980;8.410;2022-08-11T06:01:45;6.72;;;2.20;;
32788;SDS011;19141;48.980;8.410;2022-08-11T06:06:51;3.40;;;2.20;;
32788;SDS011;19141;48.980;8.410;2022-08-11T06:09:35;2.75;;;2.30;;
32788;SDS011;19141;48.980;8.410;2022-08-11T06:12:09;2.97;;;2.20;;
32788;SDS011;19141;48.980;8.410;2022-08-11T06:14:42;3.65;;;2.30;;
32788;SDS011;19141;48.980;8.410;2022-08-11T06:17:10;2.75;;;2.20;;
32788;SDS011;19141;48.980;8.410;2022-08-11T06:22:09;2.00;;;1.80;;
32788;SDS011;19141;48.980;8.410;2022-08-11T06:24:36;4.05;;;2.40;;
32788;SDS011;19141;48.980;8.410;2022-08-11T06:27:05;5.28;;;2.42;;
32788;SDS011;19141;48.980;8.410;2022-08-11T06:29:35;4.13;;;2.37;;
32788;SDS011;19141;48.980;8.410;2022-08-11T06:32:04;2.70;;;2.40;;
32788;SDS011;19141;48.980;8.410;2022-08-11T06:39:44;3.20;;;2.47;;
32788;SDS011;19141;48.980;8.410;2022-08-11T06:42:30;2.63;;;2.25;;
32788;SDS011;19141;48.980;8.410;2022-08-11T06:45:05;3.42;;;2.50;;
32788;SDS011;19141;48.980;8.410;2022-08-11T06:47:41;3.15;;;2.38;;
32788;SDS011;19141;48.980;8.410;2022-08-11T06:50:10;5.35;;;2.20;;
32788;SDS011;19141;48.980;8.410;2022-08-11T06:53:00;4.07;;;2.30;;
32788;SDS011;19141;48.980;8.410;2022-08-11T06:58:13;7.78;;;2.60;;
32788;SDS011;19141;48.980;8.410;2022-08-11T07:01:02;3.40;;;2.00;;
32788;SDS011;19141;48.980;8.410;2022-08-11T07:03:36;5.20;;;2.50;;
32788;SDS011;19141;48.980;8.410;2022-08-11T07:06:16;2.92;;;1.90;;
32788;SDS011;19141;48.980;8.410;2022-08-11T07:09:13;5.43;;;2.40;;
32788;SDS011;19141;48.980;8.410;2022-08-11T07:12:23;4.72;;;2.42;;
32788;SDS011;19141;48.980;8.410;2022-08-11T07:15:11;3.58;;;2.28;;
32788;SDS011;19141;48.980;8.410;2022-08-11T07:17:56;2.85;;;2.00;;
32788;SDS011;19141;48.980;8.410;2022-08-11T07:20:47;3.10;;;1.92;;
32788;SDS011;19141;48.980;8.410;2022-08-11T07:23:33;4.25;;;2.60;;
32788;SDS011;19141;48.980;8.410;2022-08-11T07:26:18;2.30;;;2.05;;
32788;SDS011;19141;48.980;8.410;2022-08-11T07:29:07;3.78;;;2.28;;
32788;SDS011;19141;48.980;8.410;2022-08-11T07:31:40;4.03;;;2.03;;
32788;SDS011;19141;48.980;8.410;2022-08-11T07:34:11;3.17;;;2.38;;
32788;SDS011;19141;48.980;8.410;2022-08-11T07:36:52;3.08;;;2.25;;
32788;SDS011;19141;48.980;8.410;2022-08-11T07:39:21;3.00;;;2.30;;
32788;SDS011;19141;48.980;8.410;2022-08-11T07:41:52;4.10;;;2.40;;
32788;SDS011;19141;48.980;8.410;2022-08-11T07:44:18;4.57;;;2.30;;
32788;SDS011;19141;48.980;8.410;2022-08-11T07:46:46;2.97;;;2.30;;
32788;SDS011;19141;48.980;8.410;2022-08-11T07:49:33;2.50;;;2.20;;
32788;SDS011;19141;48.980;8.410;2022-08-11T07:54:51;4.57;;;2.28;;
32788;SDS011;19141;48.980;8.410;2022-08-11T07:57:19;2.38;;;2.05;;
32788;SDS011;19141;48.980;8.410;2022-08-11T08:00:03;3.08;;;2.17;;
32788;SDS011;19141;48.980;8.410;2022-08-11T08:02:48;3.08;;;2.08;;
32788;SDS011;19141;48.980;8.410;2022-08-11T08:05:32;4.40;;;2.20;;
32788;SDS011;19141;48.980;8.410;2022-08-11T08:08:17;2.83;;;2.13;;
32788;SDS011;19141;48.980;8.410;2022-08-11T08:11:01;2.40;;;2.03;;
32788;SDS011;19141;48.980;8.410;2022-08-11T08:13:46;2.55;;;1.80;;
32788;SDS011;19141;48.980;8.410;2022-08-11T08:16:31;3.95;;;2.30;;
32788;SDS011;19141;48.980;8.410;2022-08-11T08:19:18;2.75;;;2.05;;
32788;SDS011;19141;48.980;8.410;2022-08-11T08:21:45;2.97;;;2.50;;
32788;SDS011;19141;48.980;8.410;2022-08-11T08:24:11;3.97;;;2.63;;
32788;SDS011;19141;48.980;8.410;2022-08-11T08:26:39;4.25;;;1.98;;
32788;SDS011;19141;48.980;8.410;2022-08-11T08:29:31;2.67;;;1.95;;
32788;SDS011;19141;48.980;8.410;2022-08-11T08:32:17;4.45;;;2.17;;
32788;SDS011;19141;48.980;8.410;2022-08-11T08:34:44;6.93;;;2.08;;
32788;SDS011;19141;48.980;8.410;2022-08-11T08:37:11;2.27;;;2.00;;
32788;SDS011;19141;48.980;8.410;2022-08-11T08:39:37;4.22;;;2.20;;
32788;SDS011;19141;48.980;8.410;2022-08-11T08:42:10;1.85;;;1.70;;
32788;SDS011;19141;48.980;8.410;2022-08-11T08:44:41;2.38;;;2.13;;
32788;SDS011;19141;48.980;8.410;2022-08-11T08:47:15;3.15;;;2.10;;
32788;SDS011;19141;48.980;8.410;2022-08-11T08:49:49;2.95;;;1.77;;
32788;SDS011;19141;48.980;8.410;2022-08-11T08:52:24;5.18;;;2.03;;
32788;SDS011;19141;48.980;8.410;2022-08-11T08:54:55;2.63;;;2.20;;
32788;SDS011;19141;48.980;8.410;2022-08-11T08:57:26;5.82;;;1.88;;
32788;SDS011;19141;48.980;8.410;2022-08-11T08:59:53;2.20;;;1.92;;
32788;SDS011;19141;48.980;8.410;2022-08-11T09:02:22;3.00;;;1.95;;
32788;SDS011;19141;48.980;8.410;2022-08-11T09:04:50;4.30;;;2.05;;
32788;SDS011;19141;48.980;8.410;2022-08-11T09:07:17;2.03;;;1.65;;
32788;SDS011;19141;48.980;8.410;2022-08-11T09:09:48;2.33;;;1.98;;
32788;SDS011;19141;48.980;8.410;2022-08-11T09:12:17;2.80;;;2.10;;
32788;SDS011;19141;48.980;8.410;2022-08-11T09:14:45;3.55;;;2.22;;
32788;SDS011;19141;48.980;8.410;2022-08-11T09:18:07;5.72;;;2.08;;
32788;SDS011;19141;48.980;8.410;2022-08-11T09:20:22;3.13;;;2.10;;
32788;SDS011;19141;48.980;8.410;2022-08-11T09:22:53;2.30;;;1.83;;
32788;SDS011;19141;48.980;8.410;2022-08-11T09:25:39;3.72;;;2.10;;
32788;SDS011;19141;48.980;8.410;2022-08-11T09:28:24;4.78;;;2.05;;
32788;SDS011;19141;48.980;8.410;2022-08-11T09:30:53;2.80;;;2.03;;
32788;SDS011;19141;48.980;8.410;2022-08-11T09:33:21;3.47;;;2.17;;
32788;SDS011;19141;48.980;8.410;2022-08-11T09:35:48;3.15;;;2.30;;
32788;SDS011;19141;48.980;8.410;2022-08-11T09:38:17;6.47;;;2.20;;
32788;SDS011;19141;48.980;8.410;2022-08-11T09:41:03;3.93;;;2.00;;
32788;SDS011;19141;48.980;8.410;2022-08-11T09:43:30;3.33;;;2.10;;
32788;SDS011;19141;48.980;8.410;2022-08-11T09:46:15;4.22;;;2.28;;
32788;SDS011;19141;48.980;8.410;2022-08-11T09:49:01;3.78;;;2.55;;
32788;SDS011;19141;48.980;8.410;2022-08-11T09:51:30;3.75;;;2.22;;
32788;SDS011;19141;48.980;8.410;2022-08-11T09:53:58;3.72;;;1.90;;
32788;SDS011;19141;48.980;8.410;2022-08-11T09:56:26;2.28;;;1.80;;
32788;SDS011;19141;48.980;8.410;2022-08-11T09:59:12;2.80;;;1.60;;
32788;SDS011;19141;48.980;8.410;2022-08-11T10:01:47;5.38;;;2.10;;
32788;SDS011;19141;48.980;8.410;2022-08-11T10:04:32;2.65;;;1.85;;
32788;SDS011;19141;48.980;8.410;2022-08-11T10:07:02;3.28;;;2.10;;
32788;SDS011;19141;48.980;8.410;2022-08-11T10:09:39;3.95;;;2.00;;
32788;SDS011;19141;48.980;8.410;2022-08-11T10:12:09;3.17;;;2.10;;
32788;SDS011;19141;48.980;8.410;2022-08-11T10:14:39;2.65;;;1.90;;
32788;SDS011;19141;48.980;8.410;2022-08-11T10:17:27;3.25;;;2.00;;
32788;SDS011;19141;48.980;8.410;2022-08-11T10:19:56;3.05;;;1.90;;
32788;SDS011;19141;48.980;8.410;2022-08-11T10:22:27;3.90;;;2.05;;
32788;SDS011;19141;48.980;8.410;2022-08-11T10:25:12;4.05;;;2.00;;
32788;SDS011;19141;48.980;8.410;2022-08-11T10:27:58;3.17;;;1.95;;
32788;SDS011;19141;48.980;8.410;2022-08-11T10:30:25;3.47;;;1.95;;
32788;SDS011;19141;48.980;8.410;2022-08-11T10:33:11;4.57;;;2.07;;
32788;SDS011;19141;48.980;8.410;2022-08-11T10:35:57;2.60;;;2.20;;
32788;SDS011;19141;48.980;8.410;2022-08-11T10:38:23;2.20;;;2.00;;
32788;SDS011;19141;48.980;8.410;2022-08-11T10:40:50;2.17;;;1.98;;
32788;SDS011;19141;48.980;8.410;2022-08-11T10:43:37;3.22;;;1.95;;
32788;SDS011;19141;48.980;8.410;2022-08-11T10:46:05;3.20;;;1.80;;
32788;SDS011;19141;48.980;8.410;2022-08-11T10:48:52;2.75;;;1.90;;
32788;SDS011;19141;48.980;8.410;2022-08-11T10:51:19;2.97;;;1.95;;
32788;SDS011;19141;48.980;8.410;2022-08-11T10:53:45;4.00;;;1.48;;
32788;SDS011;19141;48.980;8.410;2022-08-11T10:56:34;5.68;;;1.95;;
32788;SDS011;19141;48.980;8.410;2022-08-11T10:59:21;2.25;;;1.70;;
32788;SDS011;19141;48.980;8.410;2022-08-11T11:04:14;3.97;;;1.80;;
32788;SDS011;19141;48.980;8.410;2022-08-11T11:09:39;3.72;;;1.70;;
32788;SDS011;19141;48.980;8.410;2022-08-11T11:12:17;4.57;;;1.80;;
32788;SDS011;19141;48.980;8.410;2022-08-11T11:15:06;1.90;;;1.38;;
32788;SDS011;19141;48.980;8.410;2022-08-11T11:17:53;1.45;;;1.35;;
32788;SDS011;19141;48.980;8.410;2022-08-11T11:20:42;3.08;;;1.30;;
32788;SDS011;19141;48.980;8.410;2022-08-11T11:23:26;3.30;;;1.45;;
32788;SDS011;19141;48.980;8.410;2022-08-11T11:26:04;1.55;;;1.30;;
32788;SDS011;19141;48.980;8.410;2022-08-11T11:31:27;2.30;;;1.45;;
32788;SDS011;19141;48.980;8.410;2022-08-11T11:34:13;1.88;;;1.50;;
32788;SDS011;19141;48.980;8.410;2022-08-11T11:36:50;2.40;;;1.63;;
32788;SDS011;19141;48.980;8.410;2022-08-11T11:39:25;4.28;;;1.50;;
32788;SDS011;19141;48.980;8.410;2022-08-11T11:41:53;4.70;;;1.80;;
32788;SDS011;19141;48.980;8.410;2022-08-11T11:44:21;2.83;;;1.70;;
32788;SDS011;19141;48.980;8.410;2022-08-11T11:46:48;2.90;;;1.90;;
32788;SDS011;19141;48.980;8.410;2022-08-11T11:49:18;1.73;;;1.63;;
32788;SDS011;19141;48.980;8.410;2022-08-11T11:51:48;5.80;;;2.10;;
32788;SDS011;19141;48.980;8.410;2022-08-11T11:54:16;2.13;;;1.50;;
32788;SDS011;19141;48.980;8.410;2022-08-11T11:56:45;1.65;;;1.40;;
32788;SDS011;19141;48.980;8.410;2022-08-11T11:59:11;5.10;;;1.63;;
32788;SDS011;19141;48.980;8.410;2022-08-11T12:01:57;2.00;;;1.50;;
32788;SDS011;19141;48.980;8.410;2022-08-11T12:04:23;2.22;;;1.90;;
32788;SDS011;19141;48.980;8.410;2022-08-11T12:06:50;4.15;;;1.50;;
32788;SDS011;19141;48.980;8.410;2022-08-11T12:09:36;2.17;;;1.65;;
32788;SDS011;19141;48.980;8.410;2022-08-11T12:12:03;2.33;;;1.42;;
32788;SDS011;19141;48.980;8.410;2022-08-11T12:14:47;2.00;;;1.48;;
32788;SDS011;19141;48.980;8.410;2022-08-11T12:17:12;1.83;;;1.33;;
32788;SDS011;19141;48.980;8.410;2022-08-11T12:19:38;3.00;;;1.60;;
32788;SDS011;19141;48.980;8.410;2022-08-11T12:22:03;3.53;;;1.87;;
32788;SDS011;19141;48.980;8.410;2022-08-11T12:24:47;3.45;;;1.30;;
32788;SDS011;19141;48.980;8.410;2022-08-11T12:27:39;4.55;;;1.65;;
32788;SDS011;19141;48.980;8.410;2022-08-11T12:30:05;3.55;;;1.50;;
32788;SDS011;19141;48.980;8.410;2022-08-11T12:32:33;3.47;;;1.30;;
32788;SDS011;19141;48.980;8.410;2022-08-11T12:35:00;1.50;;;1.30;;
32788;SDS011;19141;48.980;8.410;2022-08-11T12:37:30;2.03;;;1.38;;
32788;SDS011;19141;48.980;8.410;2022-08-11T12:40:05;1.52;;;1.30;;
32788;SDS011;19141;48.980;8.410;2022-08-11T12:42:52;2.97;;;1.40;;
32788;SDS011;19141;48.980;8.410;2022-08-11T12:45:37;2.20;;;1.40;;
32788;SDS011;19141;48.980;8.410;2022-08-11T12:48:14;2.00;;;1.60;;
32788;SDS011;19141;48.980;8.410;2022-08-11T12:51:05;2.33;;;1.47;;
32788;SDS011;19141;48.980;8.410;2022-08-11T12:53:59;2.30;;;1.60;;
32788;SDS011;19141;48.980;8.410;2022-08-11T12:56:36;4.20;;;1.50;;
32788;SDS011;19141;48.980;8.410;2022-08-11T12:59:23;2.35;;;1.65;;
32788;SDS011;19141;48.980;8.410;2022-08-11T13:02:11;2.33;;;1.60;;
32788;SDS011;19141;48.980;8.410;2022-08-11T13:05:00;3.17;;;1.50;;
32788;SDS011;19141;48.980;8.410;2022-08-11T13:07:30;3.08;;;1.70;;
32788;SDS011;19141;48.980;8.410;2022-08-11T13:09:57;2.40;;;1.42;;
32788;SDS011;19141;48.980;8.410;2022-08-11T13:12:25;3.20;;;1.42;;
32788;SDS011;19141;48.980;8.410;2022-08-11T13:15:12;2.60;;;1.50;;
32788;SDS011;19141;48.980;8.410;2022-08-11T13:17:45;3.20;;;1.48;;
32788;SDS011;19141;48.980;8.410;2022-08-11T13:20:15;2.95;;;1.60;;
32788;SDS011;19141;48.980;8.410;2022-08-11T13:22:44;3.45;;;1.60;;
32788;SDS011;19141;48.980;8.410;2022-08-11T13:25:12;2.53;;;1.38;;
32788;SDS011;19141;48.980;8.410;2022-08-11T13:27:40;4.78;;;1.73;;
32788;SDS011;19141;48.980;8.410;2022-08-11T13:30:11;2.78;;;1.73;;
32788;SDS011;19141;48.980;8.410;2022-08-11T13:32:56;2.05;;;1.55;;
32788;SDS011;19141;48.980;8.410;2022-08-11T13:35:23;3.00;;;1.80;;
32788;SDS011;19141;48.980;8.410;2022-08-11T13:37:49;2.13;;;1.60;;
32788;SDS011;19141;48.980;8.410;2022-08-11T13:42:42;1.95;;;1.35;;
32788;SDS011;19141;48.980;8.410;2022-08-11T13:45:08;2.83;;;1.35;;
32788;SDS011;19141;48.980;8.410;2022-08-11T13:47:35;2.55;;;1.70;;
32788;SDS011;19141;48.980;8.410;2022-08-11T13:50:02;2.40;;;1.60;;
32788;SDS011;19141;48.980;8.410;2022-08-11T13:52:30;1.98;;;1.60;;
32788;SDS011;19141;48.980;8.410;2022-08-11T13:54:56;1.52;;;1.42;;
32788;SDS011;19141;48.980;8.410;2022-08-11T13:57:22;3.08;;;1.30;;
32788;SDS011;19141;48.980;8.410;2022-08-11T13:59:51;3.72;;;1.52;;
32788;SDS011;19141;48.980;8.410;2022-08-11T14:02:23;2.20;;;1.63;;
32788;SDS011;19141;48.980;8.410;2022-08-11T14:07:36;3.97;;;1.58;;
32788;SDS011;19141;48.980;8.410;2022-08-11T14:10:04;1.30;;;1.20;;
32788;SDS011;19141;48.980;8.410;2022-08-11T14:12:32;2.65;;;1.73;;
32788;SDS011;19141;48.980;8.410;2022-08-11T14:17:50;2.65;;;1.50;;
32788;SDS011;19141;48.980;8.410;2022-08-11T14:20:20;1.65;;;1.38;;
32788;SDS011;19141;48.980;8.410;2022-08-11T14:22:46;1.95;;;1.50;;
32788;SDS011;19141;48.980;8.410;2022-08-11T14:25:13;2.00;;;1.40;;
32788;SDS011;19141;48.980;8.410;2022-08-11T14:27:42;5.45;;;1.73;;
32788;SDS011;19141;48.980;8.410;2022-08-11T14:30:08;2.95;;;1.40;;
32788;SDS011;19141;48.980;8.410;2022-08-11T14:35:21;2.03;;;1.30;;
32788;SDS011;19141;48.980;8.410;2022-08-11T14:37:47;3.22;;;1.73;;
32788;SDS011;19141;48.980;8.410;2022-08-11T14:40:14;2.90;;;1.42;;
32788;SDS011;19141;48.980;8.410;2022-08-11T14:43:00;1.95;;;1.35;;
32788;SDS011;19141;48.980;8.410;2022-08-11T14:45:45;3.47;;;1.23;;
32788;SDS011;19141;48.980;8.410;2022-08-11T14:48:29;7.75;;;1.50;;
32788;SDS011;19141;48.980;8.410;2022-08-11T14:50:55;3.20;;;1.30;;
32788;SDS011;19141;48.980;8.410;2022-08-11T14:53:22;1.73;;;1.33;;
32788;SDS011;19141;48.980;8.410;2022-08-11T14:55:48;2.55;;;1.58;;
32788;SDS011;19141;48.980;8.410;2022-08-11T14:58:33;1.95;;;1.55;;
32788;SDS011;19141;48.980;8.410;2022-08-11T15:00:59;2.42;;;1.58;;
32788;SDS011;19141;48.980;8.410;2022-08-11T15:03:27;3.08;;;1.35;;
32788;SDS011;19141;48.980;8.410;2022-08-11T15:05:55;2.08;;;1.25;;
32788;SDS011;19141;48.980;8.410;2022-08-11T15:08:28;2.50;;;1.90;;
32788;SDS011;19141;48.980;8.410;2022-08-11T15:11:14;4.00;;;1.73;;
32788;SDS011;19141;48.980;8.410;2022-08-11T15:14:01;4.93;;;1.60;;
32788;SDS011;19141;48.980;8.410;2022-08-11T15:16:28;1.58;;;1.20;;
32788;SDS011;19141;48.980;8.410;2022-08-11T15:19:13;3.08;;;1.60;;
32788;SDS011;19141;48.980;8.410;2022-08-11T15:21:39;2.10;;;1.87;;
32788;SDS011;19141;48.980;8.410;2022-08-11T15:24:23;3.38;;;1.88;;
32788;SDS011;19141;48.980;8.410;2022-08-11T15:26:49;2.05;;;1.70;;
32788;SDS011;19141;48.980;8.410;2022-08-11T15:29:36;1.85;;;1.45;;
32788;SDS011;19141;48.980;8.410;2022-08-11T15:32:24;3.88;;;1.63;;
32788;SDS011;19141;48.980;8.410;2022-08-11T15:35:09;1.95;;;1.48;;
32788;SDS011;19141;48.980;8.410;2022-08-11T15:37:55;3.28;;;1.50;;
32788;SDS011;19141;48.980;8.410;2022-08-11T15:40:23;2.20;;;1.50;;
32788;SDS011;19141;48.980;8.410;2022-08-11T15:43:13;3.63;;;1.70;;
32788;SDS011;19141;48.980;8.410;2022-08-11T15:46:22;1.60;;;1.35;;
32788;SDS011;19141;48.980;8.410;2022-08-11T15:48:55;2.17;;;1.45;;
32788;SDS011;19141;48.980;8.410;2022-08-11T15:53:57;2.70;;;1.98;;
32788;SDS011;19141;48.980;8.410;2022-08-11T15:56:28;6.28;;;1.63;;
32788;SDS011;19141;48.980;8.410;2022-08-11T15:58:56;3.33;;;1.70;;
32788;SDS011;19141;48.980;8.410;2022-08-11T16:01:43;1.90;;;1.30;;
32788;SDS011;19141;48.980;8.410;2022-08-11T16:04:30;2.55;;;1.58;;
32788;SDS011;19141;48.980;8.410;2022-08-11T16:07:14;2.78;;;1.35;;
32788;SDS011;19141;48.980;8.410;2022-08-11T16:09:44;2.67;;;1.60;;
32788;SDS011;19141;48.980;8.410;2022-08-11T16:12:29;3.08;;;1.50;;
32788;SDS011;19141;48.980;8.410;2022-08-11T16:14:58;3.25;;;1.77;;
32788;SDS011;19141;48.980;8.410;2022-08-11T16:17:45;3.25;;;1.40;;
32788;SDS011;19141;48.980;8.410;2022-08-11T16:20:15;3.63;;;1.38;;
32788;SDS011;19141;48.980;8.410;2022-08-11T16:22:43;2.20;;;1.50;;
32788;SDS011;19141;48.980;8.410;2022-08-11T16:25:13;1.60;;;1.25;;
32788;SDS011;19141;48.980;8.410;2022-08-11T16:27:47;3.55;;;1.52;;
32788;SDS011;19141;48.980;8.410;2022-08-11T16:30:15;3.08;;;1.30;;
32788;SDS011;19141;48.980;8.410;2022-08-11T16:32:42;2.33;;;1.50;;
32788;SDS011;19141;48.980;8.410;2022-08-11T16:35:12;1.30;;;1.20;;
32788;SDS011;19141;48.980;8.410;2022-08-11T16:38:00;2.03;;;1.55;;
32788;SDS011;19141;48.980;8.410;2022-08-11T16:40:46;4.65;;;1.60;;
32788;SDS011;19141;48.980;8.410;2022-08-11T16:43:16;2.83;;;1.40;;
32788;SDS011;19141;48.980;8.410;2022-08-11T16:46:03;2.88;;;1.58;;
32788;SDS011;19141;48.980;8.410;2022-08-11T16:48:48;4.18;;;1.60;;
32788;SDS011;19141;48.980;8.410;2022-08-11T16:51:15;1.55;;;1.25;;
32788;SDS011;19141;48.980;8.410;2022-08-11T16:53:42;1.88;;;1.50;;
32788;SDS011;19141;48.980;8.410;2022-08-11T16:58:35;2.80;;;1.50;;
32788;SDS011;19141;48.980;8.410;2022-08-11T17:01:21;1.90;;;1.65;;
32788;SDS011;19141;48.980;8.410;2022-08-11T17:03:54;2.47;;;1.60;;
32788;SDS011;19141;48.980;8.410;2022-08-11T17:06:43;2.58;;;1.48;;
32788;SDS011;19141;48.980;8.410;2022-08-11T17:12:33;1.92;;;1.40;;
32788;SDS011;19141;48.980;8.410;2022-08-11T17:15:21;3.40;;;1.55;;
32788;SDS011;19141;48.980;8.410;2022-08-11T17:18:07;1.60;;;1.42;;
32788;SDS011;19141;48.980;8.410;2022-08-11T17:20:57;4.20;;;2.20;;
32788;SDS011;19141;48.980;8.410;2022-08-11T17:23:23;3.47;;;1.40;;
32788;SDS011;19141;48.980;8.410;2022-08-11T17:26:07;3.92;;;1.80;;
32788;SDS011;19141;48.980;8.410;2022-08-11T17:28:33;2.60;;;1.50;;
32788;SDS011;19141;48.980;8.410;2022-08-11T17:30:59;4.22;;;1.60;;
32788;SDS011;19141;48.980;8.410;2022-08-11T17:33:45;2.08;;;1.55;;
32788;SDS011;19141;48.980;8.410;2022-08-11T17:36:29;4.35;;;1.77;;
32788;SDS011;19141;48.980;8.410;2022-08-11T17:38:55;2.20;;;1.50;;
32788;SDS011;19141;48.980;8.410;2022-08-11T17:41:21;2.35;;;1.55;;
32788;SDS011;19141;48.980;8.410;2022-08-11T17:44:06;5.50;;;1.60;;
32788;SDS011;19141;48.980;8.410;2022-08-11T17:46:50;2.85;;;1.88;;
32788;SDS011;19141;48.980;8.410;2022-08-11T17:49:36;2.75;;;1.55;;
32788;SDS011;19141;48.980;8.410;2022-08-11T17:52:04;5.57;;;1.90;;
32788;SDS011;19141;48.980;8.410;2022-08-11T17:54:49;2.53;;;1.67;;
32788;SDS011;19141;48.980;8.410;2022-08-11T17:57:36;1.95;;;1.67;;
32788;SDS011;19141;48.980;8.410;2022-08-11T18:00:22;6.00;;;1.73;;
32788;SDS011;19141;48.980;8.410;2022-08-11T18:02:49;2.88;;;1.88;;
32788;SDS011;19141;48.980;8.410;2022-08-11T18:05:36;3.07;;;2.10;;
32788;SDS011;19141;48.980;8.410;2022-08-11T18:08:08;3.20;;;1.90;;
32788;SDS011;19141;48.980;8.410;2022-08-11T18:13:39;4.35;;;1.80;;
32788;SDS011;19141;48.980;8.410;2022-08-11T18:16:25;6.32;;;1.98;;
32788;SDS011;19141;48.980;8.410;2022-08-11T18:19:10;2.70;;;1.85;;
32788;SDS011;19141;48.980;8.410;2022-08-11T18:21:54;2.22;;;1.70;;
32788;SDS011;19141;48.980;8.410;2022-08-11T18:24:45;3.92;;;1.75;;
32788;SDS011;19141;48.980;8.410;2022-08-11T18:27:33;2.47;;;2.00;;
32788;SDS011;19141;48.980;8.410;2022-08-11T18:30:18;2.80;;;1.85;;
32788;SDS011;19141;48.980;8.410;2022-08-11T18:33:03;4.65;;;1.77;;
32788;SDS011;19141;48.980;8.410;2022-08-11T18:35:50;2.83;;;1.98;;
32788;SDS011;19141;48.980;8.410;2022-08-11T18:38:40;4.78;;;1.90;;
32788;SDS011;19141;48.980;8.410;2022-08-11T18:41:28;2.83;;;1.80;;
32788;SDS011;19141;48.980;8.410;2022-08-11T18:47:00;2.78;;;1.77;;
32788;SDS011;19141;48.980;8.410;2022-08-11T18:49:48;1.95;;;1.65;;
32788;SDS011;19141;48.980;8.410;2022-08-11T18:52:37;2.08;;;1.80;;
32788;SDS011;19141;48.980;8.410;2022-08-11T18:55:25;5.55;;;2.00;;
32788;SDS011;19141;48.980;8.410;2022-08-11T18:58:12;3.03;;;1.60;;
32788;SDS011;19141;48.980;8.410;2022-08-11T19:03:44;2.97;;;1.90;;
32788;SDS011;19141;48.980;8.410;2022-08-11T19:06:30;3.45;;;1.70;;
32788;SDS011;19141;48.980;8.410;2022-08-11T19:09:16;3.45;;;1.60;;
32788;SDS011;19141;48.980;8.410;2022-08-11T19:12:02;2.90;;;1.80;;
32788;SDS011;19141;48.980;8.410;2022-08-11T19:14:49;5.22;;;2.03;;
32788;SDS011;19141;48.980;8.410;2022-08-11T19:17:35;1.83;;;1.48;;
32788;SDS011;19141;48.980;8.410;2022-08-11T19:20:24;3.50;;;1.80;;
32788;SDS011;19141;48.980;8.410;2022-08-11T19:23:11;3.53;;;2.05;;
32788;SDS011;19141;48.980;8.410;2022-08-11T19:25:57;3.42;;;1.95;;
32788;SDS011;19141;48.980;8.410;2022-08-11T19:28:43;4.40;;;1.50;;
32788;SDS011;19141;48.980;8.410;2022-08-11T19:31:29;2.45;;;1.83;;
32788;SDS011;19141;48.980;8.410;2022-08-11T19:34:19;2.88;;;2.00;;
32788;SDS011;19141;48.980;8.410;2022-08-11T19:37:05;2.80;;;1.63;;
32788;SDS011;19141;48.980;8.410;2022-08-11T19:39:51;2.72;;;1.70;;
32788;SDS011;19141;48.980;8.410;2022-08-11T19:42:36;5.25;;;1.95;;
32788;SDS011;19141;48.980;8.410;2022-08-11T19:48:07;3.17;;;2.00;;
32788;SDS011;19141;48.980;8.410;2022-08-11T19:50:53;5.00;;;2.00;;
32788;SDS011;19141;48.980;8.410;2022-08-11T19:53:38;3.92;;;2.10;;
32788;SDS011;19141;48.980;8.410;2022-08-11T19:56:23;10.63;;;2.20;;
32788;SDS011;19141;48.980;8.410;2022-08-11T19:59:08;7.78;;;1.90;;
32788;SDS011;19141;48.980;8.410;2022-08-11T20:01:52;2.83;;;1.67;;
32788;SDS011;19141;48.980;8.410;2022-08-11T20:04:37;2.72;;;1.83;;
32788;SDS011;19141;48.980;8.410;2022-08-11T20:07:21;2.88;;;1.83;;
32788;SDS011;19141;48.980;8.410;2022-08-11T20:10:06;4.22;;;2.40;;
32788;SDS011;19141;48.980;8.410;2022-08-11T20:12:53;6.22;;;2.20;;
32788;SDS011;19141;48.980;8.410;2022-08-11T20:15:39;6.80;;;2.15;;
32788;SDS011;19141;48.980;8.410;2022-08-11T20:18:24;4.05;;;2.08;;
32788;SDS011;19141;48.980;8.410;2022-08-11T20:21:10;2.10;;;1.80;;
32788;SDS011;19141;48.980;8.410;2022-08-11T20:23:56;2.90;;;1.88;;
32788;SDS011;19141;48.980;8.410;2022-08-11T20:26:43;2.85;;;1.88;;
32788;SDS011;19141;48.980;8.410;2022-08-11T20:29:29;3.20;;;1.80;;
32788;SDS011;19141;48.980;8.410;2022-08-11T20:32:14;5.60;;;1.97;;
32788;SDS011;19141;48.980;8.410;2022-08-11T20:35:00;5.25;;;1.92;;
32788;SDS011;19141;48.980;8.410;2022-08-11T20:37:45;4.13;;;2.00;;
32788;SDS011;19141;48.980;8.410;2022-08-11T20:40:32;2.30;;;1.75;;
32788;SDS011;19141;48.980;8.410;2022-08-11T20:43:18;4.07;;;2.00;;
32788;SDS011;19141;48.980;8.410;2022-08-11T20:46:04;3.85;;;2.25;;
32788;SDS011;19141;48.980;8.410;2022-08-11T20:48:50;3.33;;;2.22;;
32788;SDS011;19141;48.980;8.410;2022-08-11T20:51:37;3.83;;;2.00;;
32788;SDS011;19141;48.980;8.410;2022-08-11T20:54:22;2.97;;;1.83;;
32788;SDS011;19141;48.980;8.410;2022-08-11T20:57:11;2.92;;;2.17;;
32788;SDS011;19141;48.980;8.410;2022-08-11T20:59:57;3.72;;;2.28;;
32788;SDS011;19141;48.980;8.410;2022-08-11T21:02:43;3.00;;;1.88;;
32788;SDS011;19141;48.980;8.410;2022-08-11T21:05:28;4.47;;;1.98;;
32788;SDS011;19141;48.980;8.410;2022-08-11T21:08:17;2.47;;;2.08;;
32788;SDS011;19141;48.980;8.410;2022-08-11T21:11:03;2.85;;;1.80;;
32788;SDS011;19141;48.980;8.410;2022-08-11T21:13:47;6.72;;;2.40;;
32788;SDS011;19141;48.980;8.410;2022-08-11T21:16:33;5.38;;;1.95;;
32788;SDS011;19141;48.980;8.410;2022-08-11T21:19:22;6.03;;;1.98;;
32788;SDS011;19141;48.980;8.410;2022-08-11T21:22:09;4.10;;;1.98;;
32788;SDS011;19141;48.980;8.410;2022-08-11T21:25:02;2.78;;;2.08;;
32788;SDS011;19141;48.980;8.410;2022-08-11T21:27:48;4.10;;;2.30;;
32788;SDS011;19141;48.980;8.410;2022-08-11T21:30:34;3.70;;;1.92;;
32788;SDS011;19141;48.980;8.410;2022-08-11T21:33:20;3.92;;;2.50;;
32788;SDS011;19141;48.980;8.410;2022-08-11T21:36:05;2.65;;;1.83;;
32788;SDS011;19141;48.980;8.410;2022-08-11T21:38:51;3.78;;;2.42;;
32788;SDS011;19141;48.980;8.410;2022-08-11T21:41:36;2.72;;;2.30;;
32788;SDS011;19141;48.980;8.410;2022-08-11T21:44:21;6.03;;;2.58;;
32788;SDS011;19141;48.980;8.410;2022-08-11T21:47:06;3.20;;;2.20;;
32788;SDS011;19141;48.980;8.410;2022-08-11T21:49:51;4.63;;;2.10;;
32788;SDS011;19141;48.980;8.410;2022-08-11T21:52:35;3.08;;;1.90;;
32788;SDS011;19141;48.980;8.410;2022-08-11T21:55:20;3.90;;;2.40;;